sensor_id;sensor_type;location;lat;lon;timestamp;pressure;altitude;pressure_sealevel;temperature;humidity
41254;BME280;26987;59.928;30.306;2022-08-01T00:02:28;101518.94;;;14.76;91.13
41254;BME280;26987;59.928;30.306;2022-08-01T00:04:57;101518.56;;;14.73;91.46
41254;BME280;26987;59.928;30.306;2022-08-01T00:07:26;101523.72;;;14.74;91.48
41254;BME280;26987;59.928;30.306;2022-08-01T00:09:54;101518.78;;;14.71;91.70
41254;BME280;26987;59.928;30.306;2022-08-01T00:12:22;101523.13;;;14.72;91.68
41254;BME280;26987;59.928;30.306;2022-08-01T00:14:50;101524.19;;;14.71;91.94
41254;BME280;26987;59.928;30.306;2022-08-01T00:17:18;101515.03;;;14.72;91.98
41254;BME280;26987;59.928;30.306;2022-08-01T00:19:47;101515.88;;;14.66;92.49
41254;BME280;26987;59.928;30.306;2022-08-01T00:22:15;101519.84;;;14.63;92.56
41254;BME280;26987;59.928;30.306;2022-08-01T00:24:43;101518.59;;;14.59;92.97
41254;BME280;26987;59.928;30.306;2022-08-01T00:27:11;101518.84;;;14.58;93.31
41254;BME280;26987;59.928;30.306;2022-08-01T00:29:39;101513.44;;;14.58;93.50
41254;BME280;26987;59.928;30.306;2022-08-01T00:32:07;101521.97;;;14.55;93.96
41254;BME280;26987;59.928;30.306;2022-08-01T00:34:35;101515.13;;;14.52;94.00
41254;BME280;26987;59.928;30.306;2022-08-01T00:37:04;101515.53;;;14.49;94.54
41254;BME280;26987;59.928;30.306;2022-08-01T00:39:32;101523.25;;;14.45;94.89
41254;BME280;26987;59.928;30.306;2022-08-01T00:42:05;101475.81;;;14.24;95.26
41254;BME280;26987;59.928;30.306;2022-08-01T00:44:34;101512.47;;;14.38;95.46
41254;BME280;26987;59.928;30.306;2022-08-01T00:47:02;101501.28;;;14.35;95.71
41254;BME280;26987;59.928;30.306;2022-08-01T00:49:30;101516.00;;;14.39;95.95
41254;BME280;26987;59.928;30.306;2022-08-01T00:51:59;101523.88;;;14.41;96.20
41254;BME280;26987;59.928;30.306;2022-08-01T00:54:29;101531.13;;;14.40;96.30
41254;BME280;26987;59.928;30.306;2022-08-01T00:56:58;101524.72;;;14.41;96.31
41254;BME280;26987;59.928;30.306;2022-08-01T00:59:26;101525.16;;;14.38;96.53
41254;BME280;26987;59.928;30.306;2022-08-01T01:01:54;101525.16;;;14.38;96.71
41254;BME280;26987;59.928;30.306;2022-08-01T01:04:22;101525.97;;;14.38;96.71
41254;BME280;26987;59.928;30.306;2022-08-01T01:06:57;101530.13;;;14.41;96.94
41254;BME280;26987;59.928;30.306;2022-08-01T01:09:34;101518.91;;;14.37;97.17
41254;BME280;26987;59.928;30.306;2022-08-01T01:12:15;101513.09;;;14.34;97.27
41254;BME280;26987;59.928;30.306;2022-08-01T01:14:52;101522.25;;;14.40;97.58
41254;BME280;26987;59.928;30.306;2022-08-01T01:17:28;101519.75;;;14.38;97.77
41254;BME280;26987;59.928;30.306;2022-08-01T01:20:00;101519.75;;;14.38;97.71
41254;BME280;26987;59.928;30.306;2022-08-01T01:22:50;101523.47;;;14.44;97.77
41254;BME280;26987;59.928;30.306;2022-08-01T01:25:39;101526.59;;;14.41;97.86
41254;BME280;26987;59.928;30.306;2022-08-01T01:28:14;101522.03;;;14.41;97.87
41254;BME280;26987;59.928;30.306;2022-08-01T01:30:49;101517.44;;;14.42;97.82
41254;BME280;26987;59.928;30.306;2022-08-01T01:33:19;101517.66;;;14.40;97.73
41254;BME280;26987;59.928;30.306;2022-08-01T01:35:52;101506.84;;;14.40;98.03
41254;BME280;26987;59.928;30.306;2022-08-01T01:38:28;101506.84;;;14.40;98.00
41254;BME280;26987;59.928;30.306;2022-08-01T01:40:57;101503.56;;;14.38;98.33
41254;BME280;26987;59.928;30.306;2022-08-01T01:43:27;101501.47;;;14.40;98.39
41254;BME280;26987;59.928;30.306;2022-08-01T01:45:59;101492.78;;;14.38;98.44
41254;BME280;26987;59.928;30.306;2022-08-01T01:48:28;101472.06;;;14.25;98.22
41254;BME280;26987;59.928;30.306;2022-08-01T01:50:57;101490.28;;;14.36;98.41
41254;BME280;26987;59.928;30.306;2022-08-01T01:53:28;101492.78;;;14.38;98.67
41254;BME280;26987;59.928;30.306;2022-08-01T01:55:58;101483.63;;;14.39;98.59
41254;BME280;26987;59.928;30.306;2022-08-01T01:58:28;101483.00;;;14.37;98.42
41254;BME280;26987;59.928;30.306;2022-08-01T02:01:01;101486.53;;;14.37;98.77
41254;BME280;26987;59.928;30.306;2022-08-01T02:03:30;101481.72;;;14.46;98.14
41254;BME280;26987;59.928;30.306;2022-08-01T02:05:59;101487.31;;;14.52;97.90
41254;BME280;26987;59.928;30.306;2022-08-01T02:08:29;101493.50;;;14.59;97.72
41254;BME280;26987;59.928;30.306;2022-08-01T02:11:00;101482.28;;;14.62;97.27
41254;BME280;26987;59.928;30.306;2022-08-01T02:13:52;101477.66;;;14.69;96.50
41254;BME280;26987;59.928;30.306;2022-08-01T02:16:25;101477.63;;;14.83;95.98
41254;BME280;26987;59.928;30.306;2022-08-01T02:18:54;101449.81;;;14.75;95.43
41254;BME280;26987;59.928;30.306;2022-08-01T02:21:26;101480.56;;;15.07;94.64
41254;BME280;26987;59.928;30.306;2022-08-01T02:24:00;101481.09;;;15.22;93.99
41254;BME280;26987;59.928;30.306;2022-08-01T02:26:31;101480.97;;;15.36;92.78
41254;BME280;26987;59.928;30.306;2022-08-01T02:29:05;101483.72;;;15.55;91.92
41254;BME280;26987;59.928;30.306;2022-08-01T02:31:38;101485.94;;;15.83;90.35
41254;BME280;26987;59.928;30.306;2022-08-01T02:34:09;101478.31;;;15.99;89.16
41254;BME280;26987;59.928;30.306;2022-08-01T02:36:40;101479.75;;;16.20;87.65
41254;BME280;26987;59.928;30.306;2022-08-01T02:39:13;101489.31;;;16.54;85.93
41254;BME280;26987;59.928;30.306;2022-08-01T02:41:45;101496.41;;;16.97;83.72
41254;BME280;26987;59.928;30.306;2022-08-01T02:44:16;101490.84;;;17.23;81.96
41254;BME280;26987;59.928;30.306;2022-08-01T02:46:51;101490.88;;;17.47;80.91
41254;BME280;26987;59.928;30.306;2022-08-01T02:49:20;101499.34;;;17.74;78.82
41254;BME280;26987;59.928;30.306;2022-08-01T02:51:51;101502.50;;;17.83;78.23
41254;BME280;26987;59.928;30.306;2022-08-01T02:54:21;101497.22;;;17.76;77.90
41254;BME280;26987;59.928;30.306;2022-08-01T02:56:50;101501.56;;;17.77;77.89
41254;BME280;26987;59.928;30.306;2022-08-01T02:59:22;101492.34;;;18.02;77.17
41254;BME280;26987;59.928;30.306;2022-08-01T03:01:54;101457.44;;;17.94;76.44
41254;BME280;26987;59.928;30.306;2022-08-01T03:04:23;101498.13;;;18.18;75.92
41254;BME280;26987;59.928;30.306;2022-08-01T03:06:53;101491.28;;;18.15;76.12
41254;BME280;26987;59.928;30.306;2022-08-01T03:09:24;101500.34;;;18.21;75.54
41254;BME280;26987;59.928;30.306;2022-08-01T03:11:53;101494.44;;;18.24;75.82
41254;BME280;26987;59.928;30.306;2022-08-01T03:14:24;101498.81;;;18.25;75.29
41254;BME280;26987;59.928;30.306;2022-08-01T03:16:54;101493.09;;;18.39;74.90
41254;BME280;26987;59.928;30.306;2022-08-01T03:19:24;101489.78;;;18.78;73.14
41254;BME280;26987;59.928;30.306;2022-08-01T03:21:55;101499.47;;;19.37;70.84
41254;BME280;26987;59.928;30.306;2022-08-01T03:24:25;101497.44;;;19.67;69.06
41254;BME280;26987;59.928;30.306;2022-08-01T03:26:55;101494.31;;;19.75;68.54
41254;BME280;26987;59.928;30.306;2022-08-01T03:29:26;101475.81;;;20.17;66.56
41254;BME280;26987;59.928;30.306;2022-08-01T03:31:58;101493.16;;;20.88;64.54
41254;BME280;26987;59.928;30.306;2022-08-01T03:34:28;101485.06;;;20.94;63.12
41254;BME280;26987;59.928;30.306;2022-08-01T03:37:00;101484.78;;;20.95;63.45
41254;BME280;26987;59.928;30.306;2022-08-01T03:39:34;101485.09;;;20.99;63.49
41254;BME280;26987;59.928;30.306;2022-08-01T03:42:08;101480.00;;;20.80;63.87
41254;BME280;26987;59.928;30.306;2022-08-01T03:44:38;101485.53;;;20.35;64.93
41254;BME280;26987;59.928;30.306;2022-08-01T03:47:10;101483.94;;;20.12;66.25
41254;BME280;26987;59.928;30.306;2022-08-01T03:49:42;101485.50;;;20.08;66.34
41254;BME280;26987;59.928;30.306;2022-08-01T03:52:11;101484.06;;;19.83;66.91
41254;BME280;26987;59.928;30.306;2022-08-01T03:54:41;101492.66;;;19.74;67.32
41254;BME280;26987;59.928;30.306;2022-08-01T03:57:13;101491.13;;;19.84;67.11
41254;BME280;26987;59.928;30.306;2022-08-01T03:59:42;101487.38;;;19.85;66.86
41254;BME280;26987;59.928;30.306;2022-08-01T04:02:12;101484.06;;;19.83;67.21
41254;BME280;26987;59.928;30.306;2022-08-01T04:04:41;101488.63;;;19.77;67.09
41254;BME280;26987;59.928;30.306;2022-08-01T04:07:22;101478.84;;;20.21;66.89
41254;BME280;26987;59.928;30.306;2022-08-01T04:09:50;101483.69;;;20.41;65.05
41254;BME280;26987;59.928;30.306;2022-08-01T04:12:18;101476.47;;;20.79;63.20
41254;BME280;26987;59.928;30.306;2022-08-01T04:14:47;101485.25;;;21.58;60.47
41254;BME280;26987;59.928;30.306;2022-08-01T04:17:16;101473.78;;;22.04;57.84
41254;BME280;26987;59.928;30.306;2022-08-01T04:19:45;101478.09;;;22.90;55.13
41254;BME280;26987;59.928;30.306;2022-08-01T04:22:14;101479.63;;;23.74;52.16
41254;BME280;26987;59.928;30.306;2022-08-01T04:24:46;101482.06;;;23.91;51.17
41254;BME280;26987;59.928;30.306;2022-08-01T04:27:25;101478.25;;;23.77;51.72
41254;BME280;26987;59.928;30.306;2022-08-01T04:29:58;101483.00;;;23.55;51.88
41254;BME280;26987;59.928;30.306;2022-08-01T04:32:30;101485.44;;;23.47;52.19
41254;BME280;26987;59.928;30.306;2022-08-01T04:35:00;101490.94;;;23.31;51.49
41254;BME280;26987;59.928;30.306;2022-08-01T04:37:30;101472.34;;;23.02;51.92
41254;BME280;26987;59.928;30.306;2022-08-01T04:40:00;101487.38;;;22.68;53.74
41254;BME280;26987;59.928;30.306;2022-08-01T04:42:28;101492.00;;;22.67;53.29
41254;BME280;26987;59.928;30.306;2022-08-01T04:44:57;101494.47;;;22.79;53.08
41254;BME280;26987;59.928;30.306;2022-08-01T04:47:26;101481.09;;;22.88;51.80
41254;BME280;26987;59.928;30.306;2022-08-01T04:49:56;101483.81;;;23.30;51.17
41254;BME280;26987;59.928;30.306;2022-08-01T04:52:32;101487.09;;;23.58;51.57
41254;BME280;26987;59.928;30.306;2022-08-01T04:55:01;101478.91;;;23.48;50.77
41254;BME280;26987;59.928;30.306;2022-08-01T04:57:29;101483.81;;;23.46;50.28
41254;BME280;26987;59.928;30.306;2022-08-01T04:59:58;101488.44;;;23.35;50.91
41254;BME280;26987;59.928;30.306;2022-08-01T05:02:26;101487.63;;;23.29;50.57
41254;BME280;26987;59.928;30.306;2022-08-01T05:04:56;101484.38;;;23.22;51.34
41254;BME280;26987;59.928;30.306;2022-08-01T05:07:25;101474.53;;;23.05;51.56
41254;BME280;26987;59.928;30.306;2022-08-01T05:09:53;101478.09;;;23.05;51.13
41254;BME280;26987;59.928;30.306;2022-08-01T05:12:21;101474.78;;;23.29;50.48
41254;BME280;26987;59.928;30.306;2022-08-01T05:14:49;101472.63;;;23.37;49.91
41254;BME280;26987;59.928;30.306;2022-08-01T05:17:17;101467.44;;;23.40;49.53
41254;BME280;26987;59.928;30.306;2022-08-01T05:19:45;101472.91;;;23.40;49.74
41254;BME280;26987;59.928;30.306;2022-08-01T05:22:14;101472.63;;;23.42;49.27
41254;BME280;26987;59.928;30.306;2022-08-01T05:24:43;101471.50;;;23.38;49.34
41254;BME280;26987;59.928;30.306;2022-08-01T05:27:11;101433.25;;;23.22;49.49
41254;BME280;26987;59.928;30.306;2022-08-01T05:29:40;101450.97;;;23.56;48.72
41254;BME280;26987;59.928;30.306;2022-08-01T05:32:08;101454.22;;;23.63;48.99
41254;BME280;26987;59.928;30.306;2022-08-01T05:34:36;101455.03;;;23.69;48.59
41254;BME280;26987;59.928;30.306;2022-08-01T05:37:04;101454.50;;;23.62;48.46
41254;BME280;26987;59.928;30.306;2022-08-01T05:39:35;101461.31;;;23.75;49.54
41254;BME280;26987;59.928;30.306;2022-08-01T05:42:03;101448.09;;;23.87;48.82
41254;BME280;26987;59.928;30.306;2022-08-01T05:44:31;101458.75;;;23.99;48.11
41254;BME280;26987;59.928;30.306;2022-08-01T05:46:59;101443.84;;;24.26;47.36
41254;BME280;26987;59.928;30.306;2022-08-01T05:49:27;101456.16;;;24.29;47.06
41254;BME280;26987;59.928;30.306;2022-08-01T05:51:55;101432.41;;;24.09;46.88
41254;BME280;26987;59.928;30.306;2022-08-01T05:54:23;101449.91;;;24.23;47.17
41254;BME280;26987;59.928;30.306;2022-08-01T05:56:52;101446.63;;;24.16;47.79
41254;BME280;26987;59.928;30.306;2022-08-01T05:59:21;101446.69;;;24.00;48.13
41254;BME280;26987;59.928;30.306;2022-08-01T06:01:49;101443.13;;;24.00;48.06
41254;BME280;26987;59.928;30.306;2022-08-01T06:04:17;101442.38;;;23.78;47.99
41254;BME280;26987;59.928;30.306;2022-08-01T06:06:45;101439.97;;;23.72;48.79
41254;BME280;26987;59.928;30.306;2022-08-01T06:09:13;101426.63;;;23.44;49.36
41254;BME280;26987;59.928;30.306;2022-08-01T06:11:42;101445.78;;;23.49;49.22
41254;BME280;26987;59.928;30.306;2022-08-01T06:14:12;101444.97;;;23.28;50.01
41254;BME280;26987;59.928;30.306;2022-08-01T06:16:40;101443.63;;;23.10;50.42
41254;BME280;26987;59.928;30.306;2022-08-01T06:19:08;101444.19;;;22.75;50.99
41254;BME280;26987;59.928;30.306;2022-08-01T06:21:35;101442.78;;;22.47;52.18
41254;BME280;26987;59.928;30.306;2022-08-01T06:24:04;101438.06;;;22.26;53.28
41254;BME280;26987;59.928;30.306;2022-08-01T06:26:32;101439.91;;;22.00;54.37
41254;BME280;26987;59.928;30.306;2022-08-01T06:29:01;101445.03;;;21.86;55.72
41254;BME280;26987;59.928;30.306;2022-08-01T06:31:30;101436.50;;;21.72;56.77
41254;BME280;26987;59.928;30.306;2022-08-01T06:33:58;101437.78;;;21.53;57.67
41254;BME280;26987;59.928;30.306;2022-08-01T06:36:26;101437.72;;;21.43;58.25
41254;BME280;26987;59.928;30.306;2022-08-01T06:38:54;101427.34;;;21.40;58.95
41254;BME280;26987;59.928;30.306;2022-08-01T06:41:22;101431.06;;;21.28;57.99
41254;BME280;26987;59.928;30.306;2022-08-01T06:43:50;101430.41;;;21.11;58.97
41254;BME280;26987;59.928;30.306;2022-08-01T06:46:18;101433.41;;;21.09;59.40
41254;BME280;26987;59.928;30.306;2022-08-01T06:48:47;101433.91;;;21.06;59.42
41254;BME280;26987;59.928;30.306;2022-08-01T06:51:16;101428.25;;;21.13;59.45
41254;BME280;26987;59.928;30.306;2022-08-01T06:53:46;101434.03;;;21.22;59.30
41254;BME280;26987;59.928;30.306;2022-08-01T06:56:14;101429.69;;;21.26;59.91
41254;BME280;26987;59.928;30.306;2022-08-01T06:58:42;101436.00;;;21.32;59.36
41254;BME280;26987;59.928;30.306;2022-08-01T07:01:10;101427.22;;;21.24;59.48
41254;BME280;26987;59.928;30.306;2022-08-01T07:03:38;101435.66;;;21.17;59.86
41254;BME280;26987;59.928;30.306;2022-08-01T07:06:07;101433.53;;;21.25;59.77
41254;BME280;26987;59.928;30.306;2022-08-01T07:08:36;101422.50;;;21.09;60.17
41254;BME280;26987;59.928;30.306;2022-08-01T07:11:03;101434.59;;;21.24;60.17
41254;BME280;26987;59.928;30.306;2022-08-01T07:13:31;101425.34;;;21.30;59.45
41254;BME280;26987;59.928;30.306;2022-08-01T07:16:00;101436.00;;;21.32;59.92
41254;BME280;26987;59.928;30.306;2022-08-01T07:18:28;101438.19;;;21.29;59.69
41254;BME280;26987;59.928;30.306;2022-08-01T07:20:55;101431.19;;;21.44;57.68
41254;BME280;26987;59.928;30.306;2022-08-01T07:23:25;101431.44;;;21.42;58.08
41254;BME280;26987;59.928;30.306;2022-08-01T07:25:53;101431.75;;;21.51;57.87
41254;BME280;26987;59.928;30.306;2022-08-01T07:28:21;101429.25;;;21.39;58.35
41254;BME280;26987;59.928;30.306;2022-08-01T07:30:49;101433.38;;;21.47;58.29
41254;BME280;26987;59.928;30.306;2022-08-01T07:33:17;101434.53;;;21.62;57.17
41254;BME280;26987;59.928;30.306;2022-08-01T07:35:45;101432.38;;;21.64;57.69
41254;BME280;26987;59.928;30.306;2022-08-01T07:38:13;101430.25;;;21.76;57.42
41254;BME280;26987;59.928;30.306;2022-08-01T07:40:44;101428.63;;;21.75;57.27
41254;BME280;26987;59.928;30.306;2022-08-01T07:43:12;101434.31;;;21.68;56.46
41254;BME280;26987;59.928;30.306;2022-08-01T07:45:41;101425.91;;;21.75;56.79
41254;BME280;26987;59.928;30.306;2022-08-01T07:48:09;101421.50;;;21.74;56.59
41254;BME280;26987;59.928;30.306;2022-08-01T07:50:37;101427.56;;;21.82;56.21
41254;BME280;26987;59.928;30.306;2022-08-01T07:53:05;101434.66;;;21.83;55.39
41254;BME280;26987;59.928;30.306;2022-08-01T07:55:33;101431.94;;;21.83;55.40
41254;BME280;26987;59.928;30.306;2022-08-01T07:58:03;101429.19;;;21.83;55.97
41254;BME280;26987;59.928;30.306;2022-08-01T08:00:31;101424.63;;;21.99;55.51
41254;BME280;26987;59.928;30.306;2022-08-01T08:02:59;101422.19;;;22.02;54.93
41254;BME280;26987;59.928;30.306;2022-08-01T08:05:27;101420.78;;;21.95;54.87
41254;BME280;26987;59.928;30.306;2022-08-01T08:07:54;101433.59;;;21.89;55.96
41254;BME280;26987;59.928;30.306;2022-08-01T08:10:22;101424.88;;;21.87;55.50
41254;BME280;26987;59.928;30.306;2022-08-01T08:12:50;101426.78;;;21.86;54.92
41254;BME280;26987;59.928;30.306;2022-08-01T08:15:20;101430.31;;;21.87;55.43
41254;BME280;26987;59.928;30.306;2022-08-01T08:17:48;101424.28;;;21.79;55.54
41254;BME280;26987;59.928;30.306;2022-08-01T08:20:16;101424.22;;;21.74;55.62
41254;BME280;26987;59.928;30.306;2022-08-01T08:22:44;101423.09;;;21.65;55.29
41254;BME280;26987;59.928;30.306;2022-08-01T08:25:12;101420.06;;;21.56;55.65
41254;BME280;26987;59.928;30.306;2022-08-01T08:27:39;101421.09;;;21.50;56.13
41254;BME280;26987;59.928;30.306;2022-08-01T08:30:08;101416.66;;;21.33;55.92
41254;BME280;26987;59.928;30.306;2022-08-01T08:32:39;101421.31;;;21.38;56.59
41254;BME280;26987;59.928;30.306;2022-08-01T08:35:08;101416.44;;;21.40;56.27
41254;BME280;26987;59.928;30.306;2022-08-01T08:37:36;101392.91;;;21.28;55.73
41254;BME280;26987;59.928;30.306;2022-08-01T08:40:06;101414.03;;;21.49;56.60
41254;BME280;26987;59.928;30.306;2022-08-01T08:42:34;101409.97;;;21.57;55.38
41254;BME280;26987;59.928;30.306;2022-08-01T08:45:02;101409.41;;;21.54;55.77
41254;BME280;26987;59.928;30.306;2022-08-01T08:47:32;101408.31;;;21.55;56.05
41254;BME280;26987;59.928;30.306;2022-08-01T08:50:03;101414.38;;;21.68;55.90
41254;BME280;26987;59.928;30.306;2022-08-01T08:52:35;101405.66;;;21.71;56.76
41254;BME280;26987;59.928;30.306;2022-08-01T08:55:07;101402.97;;;21.76;56.89
41254;BME280;26987;59.928;30.306;2022-08-01T08:57:35;101396.94;;;21.74;58.16
41254;BME280;26987;59.928;30.306;2022-08-01T09:00:07;101412.75;;;21.72;57.69
41254;BME280;26987;59.928;30.306;2022-08-01T09:02:41;101406.50;;;21.72;58.01
41254;BME280;26987;59.928;30.306;2022-08-01T09:05:10;101411.66;;;21.68;58.17
41254;BME280;26987;59.928;30.306;2022-08-01T09:07:39;101401.81;;;21.62;58.65
41254;BME280;26987;59.928;30.306;2022-08-01T09:10:07;101402.63;;;21.62;58.63
41254;BME280;26987;59.928;30.306;2022-08-01T09:12:36;101417.91;;;21.58;59.09
41254;BME280;26987;59.928;30.306;2022-08-01T09:15:05;101401.22;;;21.54;59.57
41254;BME280;26987;59.928;30.306;2022-08-01T09:17:40;101368.44;;;21.44;59.90
41254;BME280;26987;59.928;30.306;2022-08-01T09:20:22;101400.59;;;21.96;58.00
41254;BME280;26987;59.928;30.306;2022-08-01T09:22:51;101394.28;;;21.85;56.73
41254;BME280;26987;59.928;30.306;2022-08-01T09:25:19;101397.06;;;22.05;55.49
41254;BME280;26987;59.928;30.306;2022-08-01T09:27:47;101395.72;;;22.08;55.20
41254;BME280;26987;59.928;30.306;2022-08-01T09:30:16;101400.09;;;22.09;53.96
41254;BME280;26987;59.928;30.306;2022-08-01T09:32:55;101373.63;;;22.15;53.90
41254;BME280;26987;59.928;30.306;2022-08-01T09:35:26;101383.19;;;22.23;53.37
41254;BME280;26987;59.928;30.306;2022-08-01T09:38:12;101381.53;;;22.22;54.13
41254;BME280;26987;59.928;30.306;2022-08-01T09:40:48;101376.63;;;22.24;53.77
41254;BME280;26987;59.928;30.306;2022-08-01T09:43:18;101379.09;;;22.15;54.17
41254;BME280;26987;59.928;30.306;2022-08-01T09:45:46;101376.91;;;22.33;53.52
41254;BME280;26987;59.928;30.306;2022-08-01T09:48:14;101380.75;;;22.32;53.17
41254;BME280;26987;59.928;30.306;2022-08-01T09:50:45;101380.75;;;22.37;52.75
41254;BME280;26987;59.928;30.306;2022-08-01T09:53:15;101366.00;;;22.33;53.69
41254;BME280;26987;59.928;30.306;2022-08-01T09:55:43;101381.84;;;22.36;54.06
41254;BME280;26987;59.928;30.306;2022-08-01T09:58:12;101379.94;;;22.41;52.17
41254;BME280;26987;59.928;30.306;2022-08-01T10:00:40;101385.38;;;22.31;51.92
41254;BME280;26987;59.928;30.306;2022-08-01T10:03:26;101383.47;;;22.37;52.15
41254;BME280;26987;59.928;30.306;2022-08-01T10:05:57;101383.41;;;22.05;53.00
41254;BME280;26987;59.928;30.306;2022-08-01T10:08:25;101371.94;;;22.03;52.64
41254;BME280;26987;59.928;30.306;2022-08-01T10:11:07;101353.41;;;22.00;53.52
41254;BME280;26987;59.928;30.306;2022-08-01T10:13:35;101378.78;;;22.11;54.01
41254;BME280;26987;59.928;30.306;2022-08-01T10:16:05;101378.00;;;22.26;53.94
41254;BME280;26987;59.928;30.306;2022-08-01T10:18:34;101373.38;;;22.27;54.00
41254;BME280;26987;59.928;30.306;2022-08-01T10:21:04;101378.56;;;22.49;53.68
41254;BME280;26987;59.928;30.306;2022-08-01T10:23:34;101364.63;;;22.40;53.93
41254;BME280;26987;59.928;30.306;2022-08-01T10:26:04;101372.03;;;22.45;54.38
41254;BME280;26987;59.928;30.306;2022-08-01T10:28:35;101366.59;;;22.66;53.94
41254;BME280;26987;59.928;30.306;2022-08-01T10:31:04;101364.66;;;22.56;54.24
41254;BME280;26987;59.928;30.306;2022-08-01T10:33:33;101363.03;;;22.60;54.39
41254;BME280;26987;59.928;30.306;2022-08-01T10:36:04;101364.94;;;22.54;54.33
41254;BME280;26987;59.928;30.306;2022-08-01T10:38:33;101363.03;;;22.60;54.89
41254;BME280;26987;59.928;30.306;2022-08-01T10:41:03;101355.63;;;22.55;54.96
41254;BME280;26987;59.928;30.306;2022-08-01T10:43:31;101362.19;;;22.54;55.65
41254;BME280;26987;59.928;30.306;2022-08-01T10:45:59;101364.91;;;22.49;55.36
41254;BME280;26987;59.928;30.306;2022-08-01T10:48:31;101341.69;;;22.21;56.86
41254;BME280;26987;59.928;30.306;2022-08-01T10:51:02;101372.53;;;22.26;53.81
41254;BME280;26987;59.928;30.306;2022-08-01T10:53:33;101368.41;;;22.18;51.50
41254;BME280;26987;59.928;30.306;2022-08-01T10:56:03;101366.53;;;22.24;49.97
41254;BME280;26987;59.928;30.306;2022-08-01T10:58:33;101368.72;;;22.27;49.33
41254;BME280;26987;59.928;30.306;2022-08-01T11:01:20;101361.06;;;22.40;49.22
41254;BME280;26987;59.928;30.306;2022-08-01T11:04:16;101363.28;;;22.64;49.27
41254;BME280;26987;59.928;30.306;2022-08-01T11:07:01;101372.03;;;22.55;50.05
41254;BME280;26987;59.928;30.306;2022-08-01T11:09:39;101377.47;;;22.40;51.54
41254;BME280;26987;59.928;30.306;2022-08-01T11:12:09;101378.00;;;22.26;52.78
41254;BME280;26987;59.928;30.306;2022-08-01T11:17:44;101381.28;;;22.18;53.96
41254;BME280;26987;59.928;30.306;2022-08-01T11:20:16;101386.16;;;22.05;54.90
41254;BME280;26987;59.928;30.306;2022-08-01T11:26:08;101392.13;;;21.92;56.01
41254;BME280;26987;59.928;30.306;2022-08-01T11:28:37;101393.88;;;21.60;57.97
41254;BME280;26987;59.928;30.306;2022-08-01T11:31:25;101401.56;;;21.68;58.92
41254;BME280;26987;59.928;30.306;2022-08-01T11:33:53;101390.75;;;21.30;62.60
41254;BME280;26987;59.928;30.306;2022-08-01T11:36:21;101389.00;;;21.14;64.71
41254;BME280;26987;59.928;30.306;2022-08-01T11:39:13;101392.03;;;21.17;66.16
41254;BME280;26987;59.928;30.306;2022-08-01T11:41:45;101389.97;;;20.64;69.33
41254;BME280;26987;59.928;30.306;2022-08-01T11:44:16;101371.66;;;20.27;71.99
41254;BME280;26987;59.928;30.306;2022-08-01T11:46:58;101328.72;;;19.84;74.11
41254;BME280;26987;59.928;30.306;2022-08-01T11:49:43;101380.88;;;19.98;75.88
41254;BME280;26987;59.928;30.306;2022-08-01T11:52:13;101373.66;;;19.87;76.33
41254;BME280;26987;59.928;30.306;2022-08-01T11:54:45;101370.56;;;19.78;78.04
41254;BME280;26987;59.928;30.306;2022-08-01T11:57:17;101372.59;;;19.88;77.96
41254;BME280;26987;59.928;30.306;2022-08-01T11:59:47;101374.50;;;19.65;78.00
41254;BME280;26987;59.928;30.306;2022-08-01T12:02:20;101369.34;;;19.46;79.82
41254;BME280;26987;59.928;30.306;2022-08-01T12:04:53;101375.72;;;19.35;80.82
41254;BME280;26987;59.928;30.306;2022-08-01T12:07:22;101347.94;;;19.10;81.08
41254;BME280;26987;59.928;30.306;2022-08-01T12:09:58;101378.44;;;19.35;81.26
41254;BME280;26987;59.928;30.306;2022-08-01T12:12:29;101369.97;;;19.31;80.21
41254;BME280;26987;59.928;30.306;2022-08-01T12:14:59;101373.16;;;19.45;80.16
41254;BME280;26987;59.928;30.306;2022-08-01T12:17:34;101372.16;;;19.51;79.35
41254;BME280;26987;59.928;30.306;2022-08-01T12:20:04;101368.47;;;19.40;78.79
41254;BME280;26987;59.928;30.306;2022-08-01T12:22:33;101372.38;;;19.27;78.19
41254;BME280;26987;59.928;30.306;2022-08-01T12:25:05;101373.13;;;19.23;78.65
41254;BME280;26987;59.928;30.306;2022-08-01T12:27:36;101362.72;;;19.02;78.75
41254;BME280;26987;59.928;30.306;2022-08-01T12:30:06;101370.81;;;18.97;80.51
41254;BME280;26987;59.928;30.306;2022-08-01T12:32:36;101356.50;;;18.85;80.86
41254;BME280;26987;59.928;30.306;2022-08-01T12:35:06;101348.09;;;18.86;81.81
41254;BME280;26987;59.928;30.306;2022-08-01T12:37:35;101357.63;;;18.89;82.01
41254;BME280;26987;59.928;30.306;2022-08-01T12:40:14;101328.53;;;18.67;81.94
41254;BME280;26987;59.928;30.306;2022-08-01T12:42:45;101351.22;;;18.61;84.02
41254;BME280;26987;59.928;30.306;2022-08-01T12:45:14;101337.97;;;18.47;85.15
41254;BME280;26987;59.928;30.306;2022-08-01T12:47:43;101341.59;;;18.36;86.65
41254;BME280;26987;59.928;30.306;2022-08-01T12:50:14;101350.13;;;18.27;88.78
41254;BME280;26987;59.928;30.306;2022-08-01T12:52:42;101345.59;;;18.16;89.66
41254;BME280;26987;59.928;30.306;2022-08-01T12:55:13;101346.34;;;17.99;92.02
41254;BME280;26987;59.928;30.306;2022-08-01T12:57:44;101354.75;;;17.86;94.55
41254;BME280;26987;59.928;30.306;2022-08-01T13:00:19;101346.44;;;17.75;95.05
41254;BME280;26987;59.928;30.306;2022-08-01T13:02:48;101346.22;;;17.65;97.03
41254;BME280;26987;59.928;30.306;2022-08-01T13:05:17;101324.94;;;17.33;99.71